Hauptseite
METAR-TAF:

METAR-TAF

Flughäfen :

Flugplatz Schwäbisch Hall-Hessental (Adolf Würth Airport)

Schwäbisch Hall, Deutschland

Breite: 49-07-06N, Länge: 9-47-02E, Höhe: 398 m

Beobachtung

Neuester Wetterbericht von vor 18 Minuten, um 05:50 UTC
Wind 6 kt aus Ost
Temperatur -2°C
Luftfeuchtigkeit 86%
Luftdruck 1031 hPa
Sichtweite 10 km oder mehr
keine Wolken unter 1500 m und keine Kumulonimbus oder Gewitterwolken

METAR: EDTY 010550Z 09006KT CAVOK M02/M04 Q1031

Zeit: 07:08 (06:08 UTC)

Prognose

Neuester Wetterbericht von vor 13 Stunden und 8 Minuten, um 17:00 UTC
Gültige Prognose vom 28 um 18 UTC bis 01 um 03 UTC
Wind 5 kt aus Nordost
Sichtweite 10 km oder mehr
keine Wolken unter 1500 m und keine Kumulonimbus oder Gewitterwolken

TAF: EDTY 281700Z 2818/0103 04005KT CAVOK

Wetterbeobachtungen und Prognosen von mehr als 4000 Flughäfen (METAR und TAF Bericht).

Die verfügbaren Stationen werden durch gelbe und rote Markierungen auf der Karte dargestellt.

Führen Sie die Maus auf sie, um den Namen der Station zu sehen.

Darauf klicken, um die Beobachtung von Wetterbeobachtungen und Prognosen zu sehen.

Um die Karte zu ändern : klicken Sie auf den grünen Tasten mit einem schwarzen Kreuz Zum Vergrößern, auf den grünen Button mit einem Gedankenstrich zu verkleinern, oder auf die grünen Pfeile für benachbarte Karten.


METAR-TAF: